createdAt,value
2023-06-04T00:01:26.928Z,9.88
2023-06-04T00:06:31.419Z,15.93
2023-06-04T00:11:37.884Z,7.00
2023-06-04T00:16:42.137Z,13.85
2023-06-04T00:21:47.638Z,13.95
2023-06-04T00:26:53.234Z,19.58
2023-06-04T00:31:57.433Z,14.43
2023-06-04T00:37:02.682Z,17.58
2023-06-04T00:42:08.782Z,14.15
2023-06-04T00:47:13.683Z,18.17
2023-06-04T00:52:18.510Z,26.97
2023-06-04T00:57:24.385Z,25.20
2023-06-04T01:07:36.849Z,29.38
2023-06-04T01:12:43.210Z,33.63
2023-06-04T01:17:52.795Z,26.17
2023-06-04T01:23:16.398Z,24.23
2023-06-04T01:28:22.943Z,31.65
2023-06-04T01:33:27.635Z,16.83
2023-06-04T01:38:31.974Z,13.68
2023-06-04T01:43:37.544Z,19.15
2023-06-04T01:48:42.086Z,16.13
2023-06-04T01:53:46.204Z,19.83
2023-06-04T01:58:51.918Z,10.48
2023-06-04T02:03:56.240Z,12.57
2023-06-04T02:09:01.796Z,11.75
2023-06-04T02:14:07.515Z,9.02
2023-06-04T02:19:14.026Z,15.85
2023-06-04T02:24:18.109Z,7.75
2023-06-04T02:29:23.815Z,10.88
2023-06-04T02:34:28.180Z,10.45
2023-06-04T02:39:32.506Z,7.53
2023-06-04T02:44:37.931Z,11.00
2023-06-04T02:49:42.140Z,8.70
2023-06-04T02:54:46.320Z,11.10
2023-06-04T02:59:53.155Z,9.55
2023-06-04T03:04:57.210Z,11.25
2023-06-04T03:10:01.177Z,9.82
2023-06-04T03:15:08.303Z,7.10
2023-06-04T03:20:12.751Z,9.93
2023-06-04T03:25:17.087Z,9.68
2023-06-04T03:30:23.020Z,5.15
2023-06-04T03:35:36.791Z,8.17
2023-06-04T03:40:41.201Z,8.70
2023-06-04T03:45:48.088Z,6.78
2023-06-04T03:50:52.479Z,6.78
2023-06-04T03:55:56.881Z,5.47
2023-06-04T04:01:02.647Z,7.57
2023-06-04T04:06:06.924Z,12.05
2023-06-04T04:11:11.244Z,7.20
2023-06-04T04:16:17.475Z,6.50
2023-06-04T04:21:22.116Z,7.03
2023-06-04T04:26:28.922Z,5.72
2023-06-04T04:31:37.676Z,9.07
2023-06-04T04:36:42.622Z,6.70
2023-06-04T04:41:48.063Z,8.55
2023-06-04T04:46:53.818Z,13.02
2023-06-04T04:51:58.195Z,7.15
2023-06-04T04:57:13.417Z,7.57
2023-06-04T05:02:22.557Z,11.82
2023-06-04T05:07:27.566Z,7.13
2023-06-04T05:12:33.141Z,7.40
2023-06-04T05:17:41.829Z,8.50
2023-06-04T05:22:48.626Z,5.10
2023-06-04T05:27:55.734Z,8.73
2023-06-04T05:33:02.367Z,11.55
2023-06-04T05:38:07.701Z,4.88
2023-06-04T05:43:11.894Z,5.78
2023-06-04T05:48:18.006Z,8.48
2023-06-04T05:53:22.465Z,7.03
2023-06-04T05:58:28.761Z,8.13
2023-06-04T06:03:34.531Z,7.28
2023-06-04T06:13:43.335Z,7.13
2023-06-04T06:18:51.625Z,9.68
2023-06-04T06:23:56.278Z,9.77
2023-06-04T06:29:00.869Z,5.63
2023-06-04T06:34:08.884Z,12.68
2023-06-04T06:44:17.357Z,6.45
2023-06-04T06:49:22.972Z,5.43
2023-06-04T06:54:27.172Z,12.18
2023-06-04T06:59:31.289Z,8.73
2023-06-04T07:04:37.412Z,4.18
2023-06-04T07:09:41.598Z,6.82
2023-06-04T07:14:48.215Z,12.27
2023-06-04T07:19:55.027Z,7.32
2023-06-04T07:24:59.055Z,3.72
2023-06-04T07:30:03.358Z,7.80
2023-06-04T07:35:10.378Z,5.22
2023-06-04T07:40:14.583Z,6.50
2023-06-04T07:45:18.909Z,7.63
2023-06-04T07:50:24.586Z,4.93
2023-06-04T08:00:32.934Z,5.18
2023-06-04T08:05:38.501Z,5.70
2023-06-04T08:15:47.008Z,5.28
2023-06-04T08:20:52.574Z,4.03
2023-06-04T08:25:56.783Z,3.42
2023-06-04T08:31:01.553Z,3.83
2023-06-04T08:36:07.960Z,4.03
2023-06-04T08:41:17.426Z,2.88
2023-06-04T08:46:22.912Z,5.80
2023-06-04T08:56:33.962Z,4.18
2023-06-04T09:01:42.093Z,4.75
2023-06-04T09:06:50.133Z,8.40
2023-06-04T09:11:55.516Z,3.83
2023-06-04T09:17:00.372Z,8.23
2023-06-04T09:22:06.394Z,6.13
2023-06-04T09:27:14.885Z,5.32
2023-06-04T09:32:23.664Z,7.22
2023-06-04T09:37:29.310Z,7.35
2023-06-04T09:47:42.341Z,6.07
2023-06-04T09:52:47.877Z,8.80
2023-06-04T10:02:59.894Z,5.13
2023-06-04T10:08:08.730Z,5.45
2023-06-04T10:13:19.461Z,8.82
2023-06-04T10:18:23.950Z,2.78
2023-06-04T10:23:30.615Z,3.85
2023-06-04T10:28:36.142Z,7.85
2023-06-04T10:33:41.442Z,7.97
2023-06-04T10:38:49.520Z,3.33
2023-06-04T10:44:02.440Z,8.35
2023-06-04T10:49:06.553Z,7.25
2023-06-04T10:54:12.091Z,3.78
2023-06-04T10:59:18.594Z,8.77
2023-06-04T11:04:26.718Z,4.05
2023-06-04T11:09:34.570Z,3.72
2023-06-04T11:14:39.095Z,3.88
2023-06-04T11:19:43.629Z,6.37
2023-06-04T11:24:49.754Z,4.97
2023-06-04T11:29:55.145Z,8.18
2023-06-04T11:35:09.070Z,6.22
2023-06-04T11:40:21.772Z,5.70
2023-06-04T11:45:26.912Z,6.47
2023-06-04T11:50:31.408Z,5.13
2023-06-04T11:55:39.725Z,10.15
2023-06-04T12:00:44.398Z,5.05
2023-06-04T12:05:48.628Z,6.78
2023-06-04T12:10:54.035Z,4.80
2023-06-04T12:15:58.247Z,5.05
2023-06-04T12:21:02.352Z,10.65
2023-06-04T12:26:08.480Z,9.27
2023-06-04T12:31:19.246Z,7.38
2023-06-04T12:36:23.562Z,11.27
2023-06-04T12:41:29.281Z,5.35
2023-06-04T12:46:34.676Z,3.20
2023-06-04T12:51:39.691Z,6.85
2023-06-04T12:56:46.094Z,4.47
2023-06-04T13:01:50.484Z,4.30
2023-06-04T13:07:00.102Z,6.07
2023-06-04T13:12:07.268Z,3.83
2023-06-04T13:17:22.158Z,7.70
2023-06-04T13:22:27.476Z,3.83
2023-06-04T13:27:33.047Z,7.68
2023-06-04T13:32:37.220Z,4.07
2023-06-04T13:42:48.195Z,6.47
2023-06-04T13:47:54.425Z,8.60
2023-06-04T13:52:59.430Z,7.47
2023-06-04T13:58:05.014Z,6.53
2023-06-04T14:03:09.395Z,3.58
2023-06-04T14:08:16.427Z,9.05
2023-06-04T14:13:21.945Z,3.92
2023-06-04T14:18:26.068Z,8.48
2023-06-04T14:23:30.351Z,3.88
2023-06-04T14:33:40.783Z,5.07
2023-06-04T14:38:46.083Z,5.85
2023-06-04T14:43:51.557Z,5.53
2023-06-04T14:48:55.845Z,4.50
2023-06-04T14:53:59.883Z,6.50
2023-06-04T15:04:14.961Z,3.35
2023-06-04T15:09:19.290Z,4.43
2023-06-04T15:14:24.916Z,5.05
2023-06-04T15:19:29.194Z,4.55
2023-06-04T15:24:36.539Z,5.97
2023-06-04T15:29:42.086Z,3.53
2023-06-04T15:34:46.641Z,5.80
2023-06-04T15:39:51.423Z,6.35
2023-06-04T15:50:01.082Z,3.40
2023-06-04T15:55:06.075Z,3.63
2023-06-04T16:00:13.638Z,5.88
2023-06-04T16:05:18.665Z,3.70
2023-06-04T16:10:22.998Z,8.35
2023-06-04T16:15:28.507Z,5.82
2023-06-04T16:20:32.636Z,4.40
2023-06-04T16:25:37.563Z,5.45
2023-06-04T16:30:43.045Z,4.82
2023-06-04T16:35:47.204Z,10.13
2023-06-04T16:40:51.284Z,7.20
2023-06-04T16:45:56.980Z,6.80
2023-06-04T16:51:00.915Z,4.00
2023-06-04T16:56:05.923Z,4.75
2023-06-04T17:01:11.856Z,7.63
2023-06-04T17:06:16.037Z,8.43
2023-06-04T17:11:20.091Z,8.30
2023-06-04T17:16:27.511Z,10.68
2023-06-04T17:21:32.924Z,13.93
2023-06-04T17:26:36.998Z,6.63
2023-06-04T17:31:42.808Z,5.40
2023-06-04T17:36:47.024Z,8.60
2023-06-04T17:41:51.147Z,5.32
2023-06-04T17:46:56.769Z,6.95
2023-06-04T17:52:00.963Z,5.93
2023-06-04T17:57:05.924Z,7.67
2023-06-04T18:02:11.462Z,5.20
2023-06-04T18:07:15.656Z,7.82
2023-06-04T18:12:19.726Z,7.25
2023-06-04T18:17:25.589Z,7.50
2023-06-04T18:22:30.339Z,10.00
2023-06-04T18:27:34.677Z,5.25
2023-06-04T18:32:42.048Z,7.47
2023-06-04T18:37:46.185Z,6.32
2023-06-04T18:42:50.322Z,7.40
2023-06-04T18:47:55.801Z,7.00
2023-06-04T18:58:05.076Z,18.03
2023-06-04T19:03:10.897Z,16.13
2023-06-04T19:08:15.025Z,19.05
2023-06-04T19:13:19.248Z,12.40
2023-06-04T19:18:24.627Z,14.75
2023-06-04T19:23:28.831Z,12.60
2023-06-04T19:28:32.952Z,10.60
2023-06-04T19:33:39.269Z,12.70
2023-06-04T19:38:45.741Z,18.63
2023-06-04T19:43:49.989Z,14.23
2023-06-04T19:48:55.940Z,17.40
2023-06-04T19:54:00.524Z,16.63
2023-06-04T19:59:04.927Z,21.30
2023-06-04T20:04:10.719Z,25.77
2023-06-04T20:09:15.813Z,16.60
2023-06-04T20:14:22.150Z,20.80
2023-06-04T20:19:29.212Z,18.50
2023-06-04T20:24:33.444Z,20.33
2023-06-04T20:29:37.600Z,22.65
2023-06-04T20:34:43.202Z,20.80
2023-06-04T20:39:49.994Z,23.77
2023-06-04T20:44:54.185Z,21.30
2023-06-04T20:49:59.828Z,23.85
2023-06-04T20:55:04.017Z,19.42
2023-06-04T21:00:10.447Z,18.10
2023-06-04T21:05:16.091Z,18.88
2023-06-04T21:10:24.244Z,19.55
2023-06-04T21:15:37.880Z,16.40
2023-06-04T21:20:46.295Z,16.95
2023-06-04T21:25:50.746Z,18.50
2023-06-04T21:30:57.382Z,18.63
2023-06-04T21:36:03.170Z,11.23
2023-06-04T21:41:07.676Z,14.48
2023-06-04T21:46:12.098Z,13.65
2023-06-04T21:51:17.769Z,14.98
2023-06-04T21:56:22.042Z,15.60
2023-06-04T22:01:26.195Z,14.75
2023-06-04T22:06:31.705Z,19.83
2023-06-04T22:11:36.143Z,19.80
2023-06-04T22:16:40.260Z,11.98
2023-06-04T22:21:46.223Z,15.80
2023-06-04T22:26:50.574Z,16.55
2023-06-04T22:31:55.039Z,10.98
2023-06-04T22:37:01.091Z,15.05
2023-06-04T22:42:05.523Z,13.10
2023-06-04T22:47:10.492Z,12.50
2023-06-04T22:52:17.156Z,13.57
2023-06-04T22:57:21.282Z,15.77
2023-06-04T23:02:25.480Z,14.43
2023-06-04T23:07:30.983Z,21.92
2023-06-04T23:12:35.142Z,13.98
2023-06-04T23:17:41.214Z,13.00
2023-06-04T23:22:47.320Z,12.80
2023-06-04T23:27:54.704Z,14.48
2023-06-04T23:32:59.350Z,15.52
2023-06-04T23:38:05.052Z,15.30
2023-06-04T23:43:09.096Z,12.52
2023-06-04T23:48:13.224Z,17.63
2023-06-04T23:53:18.827Z,16.45
2023-06-04T23:58:23.177Z,14.52
